createdAt,value
2023-03-29T00:01:54.605Z,38.10
2023-03-29T00:04:27.822Z,32.80
2023-03-29T00:06:57.227Z,30.00
2023-03-29T00:09:26.943Z,31.30
2023-03-29T00:11:55.932Z,31.20
2023-03-29T00:14:30.787Z,31.60
2023-03-29T00:17:00.383Z,28.10
2023-03-29T00:19:32.239Z,29.10
2023-03-29T00:22:02.976Z,29.90
2023-03-29T00:24:32.282Z,31.20
2023-03-29T00:27:01.684Z,32.30
2023-03-29T00:29:30.748Z,30.30
2023-03-29T00:31:59.688Z,27.30
2023-03-29T00:34:31.951Z,30.30
2023-03-29T00:37:00.951Z,28.20
2023-03-29T00:39:30.970Z,26.90
2023-03-29T00:41:59.873Z,30.00
2023-03-29T00:44:59.869Z,34.50
2023-03-29T00:47:45.003Z,33.60
2023-03-29T00:50:18.872Z,34.10
2023-03-29T00:53:07.351Z,34.50
2023-03-29T00:55:43.003Z,32.40
2023-03-29T00:58:16.034Z,34.10
2023-03-29T01:00:52.302Z,35.60
2023-03-29T01:03:28.193Z,38.40
2023-03-29T01:06:02.560Z,37.20
2023-03-29T01:08:47.749Z,37.60
2023-03-29T01:11:41.135Z,33.50
2023-03-29T01:14:28.808Z,32.30
2023-03-29T01:16:58.028Z,30.40
2023-03-29T01:19:33.099Z,31.40
2023-03-29T01:22:26.186Z,34.00
2023-03-29T01:25:04.294Z,30.20
2023-03-29T01:27:56.114Z,34.10
2023-03-29T01:30:37.699Z,32.70
2023-03-29T01:33:13.146Z,33.80
2023-03-29T01:35:46.907Z,34.20
2023-03-29T01:38:32.425Z,33.40
2023-03-29T01:41:03.904Z,32.30
2023-03-29T01:43:57.003Z,37.80
2023-03-29T01:46:36.522Z,35.10
2023-03-29T01:49:22.543Z,34.80
2023-03-29T01:52:03.924Z,33.70
2023-03-29T01:54:41.825Z,36.60
2023-03-29T01:57:14.553Z,37.90
2023-03-29T01:59:45.995Z,38.90
2023-03-29T02:02:18.848Z,34.60
2023-03-29T02:04:53.833Z,32.30
2023-03-29T02:07:26.867Z,35.10
2023-03-29T02:09:57.530Z,36.20
2023-03-29T02:12:27.220Z,34.90
2023-03-29T02:14:58.820Z,32.70
2023-03-29T02:17:28.579Z,32.80
2023-03-29T02:20:10.309Z,32.90
2023-03-29T02:22:47.200Z,31.80
2023-03-29T02:25:17.628Z,31.20
2023-03-29T02:27:46.685Z,28.50
2023-03-29T02:30:19.354Z,27.30
2023-03-29T02:33:05.984Z,28.90
2023-03-29T02:35:41.038Z,33.80
2023-03-29T02:38:14.817Z,36.30
2023-03-29T02:40:47.004Z,35.20
2023-03-29T02:43:17.203Z,35.00
2023-03-29T02:45:47.434Z,35.40
2023-03-29T02:48:20.823Z,34.10
2023-03-29T02:50:54.121Z,34.50
2023-03-29T02:53:29.235Z,33.70
2023-03-29T02:56:02.395Z,30.90
2023-03-29T02:58:31.957Z,30.70
2023-03-29T03:01:02.532Z,32.80
2023-03-29T03:03:32.092Z,31.00
2023-03-29T03:06:01.859Z,31.00
2023-03-29T03:08:31.225Z,28.10
2023-03-29T03:11:00.458Z,26.80
2023-03-29T03:13:29.629Z,27.90
2023-03-29T03:15:58.630Z,27.00
2023-03-29T03:18:27.932Z,27.00
2023-03-29T03:20:59.601Z,24.50
2023-03-29T03:23:28.799Z,22.10
2023-03-29T03:25:59.284Z,21.20
2023-03-29T03:28:28.922Z,22.00
2023-03-29T03:30:58.228Z,19.80
2023-03-29T03:33:28.307Z,20.30
2023-03-29T03:36:02.930Z,20.60
2023-03-29T03:38:33.367Z,19.70
2023-03-29T03:41:02.748Z,18.90
2023-03-29T03:43:31.991Z,18.90
2023-03-29T03:46:01.682Z,18.00
2023-03-29T03:48:30.833Z,25.40
2023-03-29T03:50:59.936Z,26.80
2023-03-29T03:53:29.029Z,24.90
2023-03-29T03:55:58.229Z,23.10
2023-03-29T03:58:27.232Z,23.60
2023-03-29T04:00:56.121Z,24.30
2023-03-29T04:03:25.137Z,24.00
2023-03-29T04:05:54.150Z,23.00
2023-03-29T04:08:23.066Z,21.60
2023-03-29T04:10:56.888Z,21.30
2023-03-29T04:13:27.304Z,19.20
2023-03-29T04:15:58.237Z,18.00
2023-03-29T04:18:29.210Z,15.30
2023-03-29T04:20:58.454Z,11.70
2023-03-29T04:23:27.390Z,14.10
2023-03-29T04:25:56.875Z,13.00
2023-03-29T04:28:25.851Z,13.80
2023-03-29T04:30:54.847Z,12.40
2023-03-29T04:33:23.777Z,11.70
2023-03-29T04:35:52.887Z,12.10
2023-03-29T04:38:23.425Z,13.80
2023-03-29T04:40:55.081Z,14.10
2023-03-29T04:43:24.086Z,13.40
2023-03-29T04:45:53.064Z,12.40
2023-03-29T04:48:22.706Z,11.90
2023-03-29T04:50:52.377Z,13.50
2023-03-29T04:53:22.360Z,14.00
2023-03-29T04:55:51.461Z,14.00
2023-03-29T04:58:22.535Z,13.40
2023-03-29T05:00:56.007Z,13.40
2023-03-29T05:03:25.650Z,11.20
2023-03-29T05:05:54.744Z,10.10
2023-03-29T05:08:24.330Z,9.50
2023-03-29T05:10:53.231Z,8.00
2023-03-29T05:13:22.230Z,8.30
2023-03-29T05:15:52.791Z,9.60
2023-03-29T05:18:22.370Z,5.60
2023-03-29T05:20:53.262Z,8.90
2023-03-29T05:23:23.841Z,8.70
2023-03-29T05:25:55.609Z,7.60
2023-03-29T05:28:24.746Z,5.10
2023-03-29T05:31:02.422Z,4.40
2023-03-29T05:33:31.761Z,5.30
2023-03-29T05:36:03.702Z,6.00
2023-03-29T05:38:35.934Z,5.00
2023-03-29T05:41:06.405Z,9.50
2023-03-29T05:43:35.459Z,8.70
2023-03-29T05:46:05.906Z,7.70
2023-03-29T05:48:36.526Z,6.60
2023-03-29T05:51:05.939Z,7.00
2023-03-29T05:53:35.443Z,10.10
2023-03-29T05:56:04.793Z,8.00
2023-03-29T05:58:33.843Z,10.30
2023-03-29T06:01:04.745Z,11.50
2023-03-29T06:03:34.097Z,10.20
2023-03-29T06:06:04.429Z,10.30
2023-03-29T06:08:35.256Z,11.50
2023-03-29T06:11:06.708Z,10.50
2023-03-29T06:13:37.238Z,15.40
2023-03-29T06:16:06.895Z,9.80
2023-03-29T06:18:36.835Z,10.50
2023-03-29T06:21:08.076Z,6.70
2023-03-29T06:23:37.189Z,6.30
2023-03-29T06:26:06.838Z,13.50
2023-03-29T06:28:35.833Z,13.20
2023-03-29T06:31:05.696Z,12.80
2023-03-29T06:33:37.306Z,19.60
2023-03-29T06:36:06.981Z,13.20
2023-03-29T06:38:36.444Z,20.30
2023-03-29T06:41:07.931Z,13.60
2023-03-29T06:43:37.916Z,20.90
2023-03-29T06:46:12.430Z,23.20
2023-03-29T06:48:41.830Z,23.00
2023-03-29T06:51:10.836Z,22.60
2023-03-29T06:53:39.827Z,17.00
2023-03-29T06:56:09.880Z,14.10
2023-03-29T06:58:39.466Z,18.10
2023-03-29T07:01:08.470Z,22.90
2023-03-29T07:03:39.370Z,17.20
2023-03-29T07:06:12.501Z,27.40
2023-03-29T07:08:45.282Z,23.50
2023-03-29T07:11:15.293Z,13.20
2023-03-29T07:13:44.928Z,11.20
2023-03-29T07:16:14.123Z,9.10
2023-03-29T07:18:44.348Z,8.30
2023-03-29T07:21:13.642Z,5.40
2023-03-29T07:23:42.936Z,6.00
2023-03-29T07:26:12.651Z,6.40
2023-03-29T07:28:42.605Z,6.10
2023-03-29T07:31:12.284Z,5.00
2023-03-29T07:33:41.798Z,3.30
2023-03-29T07:36:12.183Z,5.90
2023-03-29T07:38:41.934Z,5.20
2023-03-29T07:41:10.921Z,5.80
2023-03-29T07:43:39.937Z,7.00
2023-03-29T07:46:10.276Z,6.60
2023-03-29T07:48:39.468Z,5.50
2023-03-29T07:51:08.690Z,5.40
2023-03-29T07:53:38.675Z,7.40
2023-03-29T07:56:09.036Z,6.80
2023-03-29T07:58:38.052Z,5.20
2023-03-29T08:01:08.547Z,5.40
2023-03-29T08:03:37.609Z,5.40
2023-03-29T08:06:07.018Z,4.90
2023-03-29T08:08:36.830Z,4.60
2023-03-29T08:11:08.972Z,3.80
2023-03-29T08:13:37.927Z,4.40
2023-03-29T08:16:07.694Z,5.90
2023-03-29T08:18:36.611Z,5.70
2023-03-29T08:21:05.870Z,4.80
2023-03-29T08:23:35.763Z,3.90
2023-03-29T08:26:04.943Z,4.50
2023-03-29T08:28:33.826Z,4.20
2023-03-29T08:31:03.101Z,4.40
2023-03-29T08:33:32.594Z,3.10
2023-03-29T08:36:02.098Z,4.80
2023-03-29T08:38:31.184Z,3.60
2023-03-29T08:41:00.959Z,2.70
2023-03-29T08:43:36.121Z,3.10
2023-03-29T08:46:40.658Z,3.00
2023-03-29T08:49:12.519Z,3.20
2023-03-29T08:51:47.884Z,3.40
2023-03-29T08:54:28.262Z,4.20
2023-03-29T08:57:08.572Z,3.60
2023-03-29T08:59:39.618Z,2.50
2023-03-29T09:02:17.886Z,4.00
2023-03-29T09:04:48.701Z,2.90
2023-03-29T09:07:17.871Z,2.50
2023-03-29T09:09:46.894Z,3.20
2023-03-29T09:12:48.911Z,2.70
2023-03-29T09:15:42.566Z,3.20
2023-03-29T09:18:22.088Z,2.30
2023-03-29T09:20:59.141Z,2.80
2023-03-29T09:23:58.287Z,2.30
2023-03-29T09:26:59.728Z,2.70
2023-03-29T09:29:37.751Z,2.60
2023-03-29T09:32:19.705Z,2.80
2023-03-29T09:35:14.437Z,2.90
2023-03-29T09:37:43.395Z,2.70
2023-03-29T09:40:17.807Z,3.00
2023-03-29T09:42:51.151Z,2.90
2023-03-29T09:45:20.321Z,2.80
2023-03-29T09:47:58.201Z,2.80
2023-03-29T09:50:35.406Z,2.90
2023-03-29T09:53:05.627Z,3.40
2023-03-29T09:55:37.343Z,3.20
2023-03-29T09:58:32.933Z,3.40
2023-03-29T10:01:08.919Z,3.00
2023-03-29T10:03:39.963Z,3.40
2023-03-29T10:06:12.674Z,2.80
2023-03-29T10:08:51.838Z,3.20
2023-03-29T10:11:29.006Z,2.80
2023-03-29T10:14:03.089Z,2.90
2023-03-29T10:16:42.534Z,2.50
2023-03-29T10:19:23.365Z,2.70
2023-03-29T10:21:54.077Z,3.40
2023-03-29T10:24:25.746Z,2.50
2023-03-29T10:27:00.244Z,2.50
2023-03-29T10:29:42.721Z,3.30
2023-03-29T10:32:17.540Z,3.20
2023-03-29T10:34:47.931Z,2.60
2023-03-29T10:37:19.666Z,3.90
2023-03-29T10:39:49.132Z,4.10
2023-03-29T10:42:23.792Z,4.30
2023-03-29T10:44:58.442Z,3.50
2023-03-29T10:47:31.743Z,2.50
2023-03-29T10:50:01.628Z,2.60
2023-03-29T10:52:30.609Z,2.90
2023-03-29T10:55:00.556Z,2.90
2023-03-29T10:57:58.827Z,3.60
2023-03-29T11:00:56.956Z,2.00
2023-03-29T11:03:33.930Z,4.00
2023-03-29T11:06:21.156Z,2.60
2023-03-29T11:08:57.610Z,2.30
2023-03-29T11:11:47.981Z,2.20
2023-03-29T11:14:41.453Z,2.90
2023-03-29T11:17:19.492Z,2.40
2023-03-29T11:19:56.650Z,2.50
2023-03-29T11:22:36.584Z,1.90
2023-03-29T11:25:30.188Z,2.80
2023-03-29T11:28:05.266Z,2.20
2023-03-29T11:30:48.451Z,2.70
2023-03-29T11:33:34.633Z,3.30
2023-03-29T11:36:33.841Z,2.70
2023-03-29T11:39:22.313Z,2.60
2023-03-29T11:41:56.431Z,2.30
2023-03-29T11:44:30.529Z,1.80
2023-03-29T11:47:05.173Z,2.80
2023-03-29T11:49:41.852Z,2.50
2023-03-29T11:52:24.559Z,2.90
2023-03-29T11:54:56.172Z,2.50
2023-03-29T11:57:39.146Z,2.70
2023-03-29T12:00:15.795Z,2.00
2023-03-29T12:02:48.288Z,2.00
2023-03-29T12:05:27.510Z,2.00
2023-03-29T12:08:00.086Z,1.80
2023-03-29T12:11:01.539Z,2.10
2023-03-29T12:13:36.905Z,1.80
2023-03-29T12:16:23.958Z,2.00
2023-03-29T12:18:58.283Z,2.20
2023-03-29T12:21:30.054Z,2.30
2023-03-29T12:23:59.037Z,2.00
2023-03-29T12:26:46.036Z,1.90
2023-03-29T12:29:33.791Z,2.80
2023-03-29T12:32:15.089Z,1.80
2023-03-29T12:34:53.102Z,2.40
2023-03-29T12:37:36.293Z,3.00
2023-03-29T12:40:17.744Z,2.30
2023-03-29T12:43:07.046Z,2.80
2023-03-29T12:45:43.049Z,1.90
2023-03-29T12:48:19.051Z,3.10
2023-03-29T12:51:01.224Z,2.30
2023-03-29T12:53:43.491Z,2.80
2023-03-29T12:56:16.357Z,3.30
2023-03-29T12:59:17.745Z,2.80
2023-03-29T13:02:00.294Z,2.90
2023-03-29T13:05:25.077Z,2.50
2023-03-29T13:07:56.092Z,2.40
2023-03-29T13:10:37.891Z,2.70
2023-03-29T13:13:30.913Z,3.30
2023-03-29T13:16:18.819Z,3.60
2023-03-29T13:19:08.268Z,3.60
2023-03-29T13:21:46.556Z,4.00
2023-03-29T13:25:04.422Z,6.60
2023-03-29T13:27:48.835Z,4.00
2023-03-29T13:30:46.190Z,3.60
2023-03-29T13:33:38.266Z,4.00
2023-03-29T13:36:37.585Z,3.10
2023-03-29T13:39:07.612Z,2.60
2023-03-29T13:41:39.098Z,2.60
2023-03-29T13:44:38.913Z,3.50
2023-03-29T13:47:19.687Z,3.00
2023-03-29T13:49:54.791Z,2.70
2023-03-29T13:52:51.403Z,2.60
2023-03-29T13:55:27.055Z,1.90
2023-03-29T13:58:02.779Z,3.70
2023-03-29T14:00:40.180Z,3.80
2023-03-29T14:03:15.652Z,3.80
2023-03-29T14:05:50.816Z,3.90
2023-03-29T14:08:39.455Z,3.10
2023-03-29T14:11:19.916Z,2.60
2023-03-29T14:13:52.835Z,3.10
2023-03-29T14:16:22.249Z,3.50
2023-03-29T14:18:52.367Z,3.70
2023-03-29T14:21:21.750Z,2.60
2023-03-29T14:23:55.859Z,2.10
2023-03-29T14:26:30.682Z,2.90
2023-03-29T14:29:01.468Z,2.10
2023-03-29T14:31:33.554Z,2.30
2023-03-29T14:34:06.812Z,2.80
2023-03-29T14:36:36.495Z,3.20
2023-03-29T14:39:23.840Z,2.70
2023-03-29T14:41:59.675Z,2.50
2023-03-29T14:44:33.233Z,2.80
2023-03-29T14:47:03.414Z,2.80
2023-03-29T14:49:32.747Z,3.30
2023-03-29T14:52:02.351Z,3.20
2023-03-29T14:54:34.867Z,4.20
2023-03-29T14:57:07.403Z,4.40
2023-03-29T14:59:42.931Z,3.60
2023-03-29T15:02:48.590Z,3.10
2023-03-29T15:06:04.215Z,4.30
2023-03-29T15:08:38.578Z,3.90
2023-03-29T15:11:18.929Z,4.30
2023-03-29T15:13:49.305Z,5.10
2023-03-29T15:16:22.799Z,2.90
2023-03-29T15:18:53.027Z,4.30
2023-03-29T15:21:23.008Z,2.10
2023-03-29T15:24:03.429Z,4.30
2023-03-29T15:26:35.324Z,4.50
2023-03-29T15:29:23.335Z,4.20
2023-03-29T15:31:57.411Z,3.20
2023-03-29T15:34:29.537Z,3.10
2023-03-29T15:36:59.207Z,3.20
2023-03-29T15:39:29.593Z,2.50
2023-03-29T15:41:58.786Z,3.90
2023-03-29T15:44:32.555Z,2.60
2023-03-29T15:47:01.657Z,3.30
2023-03-29T15:49:30.789Z,2.50
2023-03-29T15:51:59.723Z,2.90
2023-03-29T15:54:31.132Z,2.50
2023-03-29T15:57:07.362Z,2.60
2023-03-29T15:59:36.691Z,2.60
2023-03-29T16:02:06.389Z,2.60
2023-03-29T16:04:35.414Z,2.30
2023-03-29T16:07:10.962Z,2.10
2023-03-29T16:09:39.929Z,1.70
2023-03-29T16:12:10.334Z,1.70
2023-03-29T16:14:39.586Z,1.80
2023-03-29T16:17:08.454Z,2.10
2023-03-29T16:19:37.819Z,2.00
2023-03-29T16:22:07.592Z,3.60
2023-03-29T16:24:36.860Z,4.20
2023-03-29T16:27:05.922Z,2.70
2023-03-29T16:29:35.067Z,1.50
2023-03-29T16:32:06.620Z,3.10
2023-03-29T16:34:36.119Z,3.20
2023-03-29T16:37:05.166Z,3.10
2023-03-29T16:39:34.479Z,3.10
2023-03-29T16:42:04.007Z,2.30
2023-03-29T16:44:32.933Z,2.40
2023-03-29T16:47:02.180Z,7.40
2023-03-29T16:49:31.381Z,7.60
2023-03-29T16:52:00.256Z,3.40
2023-03-29T16:54:29.735Z,2.80
2023-03-29T16:56:59.040Z,9.50
2023-03-29T16:59:27.983Z,4.80
2023-03-29T17:01:57.025Z,3.70
2023-03-29T17:04:26.461Z,3.30
2023-03-29T17:06:55.834Z,3.60
2023-03-29T17:09:25.812Z,4.20
2023-03-29T17:11:56.140Z,4.10
2023-03-29T17:14:25.589Z,5.20
2023-03-29T17:16:54.542Z,8.00
2023-03-29T17:19:23.465Z,8.50
2023-03-29T17:21:52.398Z,8.80
2023-03-29T17:24:21.469Z,7.50
2023-03-29T17:26:50.633Z,6.30
2023-03-29T17:29:19.630Z,6.70
2023-03-29T17:31:48.678Z,6.10
2023-03-29T17:34:19.420Z,5.80
2023-03-29T17:36:49.110Z,6.00
2023-03-29T17:39:18.879Z,5.70
2023-03-29T17:41:48.210Z,4.90
2023-03-29T17:44:17.230Z,5.40
2023-03-29T17:46:46.791Z,5.70
2023-03-29T17:49:15.809Z,5.50
2023-03-29T17:51:44.808Z,6.20
2023-03-29T17:54:13.802Z,5.90
2023-03-29T17:56:42.817Z,6.70
2023-03-29T17:59:11.802Z,6.70
2023-03-29T18:01:40.932Z,8.30
2023-03-29T18:04:10.717Z,8.80
2023-03-29T18:06:39.817Z,10.40
2023-03-29T18:09:10.395Z,25.20
2023-03-29T18:11:39.526Z,23.80
2023-03-29T18:14:08.429Z,22.90
2023-03-29T18:16:37.473Z,22.60
2023-03-29T18:19:06.543Z,22.20
2023-03-29T18:21:35.563Z,23.90
2023-03-29T18:24:04.555Z,21.60
2023-03-29T18:26:33.572Z,22.30
2023-03-29T18:29:02.463Z,23.70
2023-03-29T18:31:31.418Z,23.80
2023-03-29T18:34:00.615Z,25.30
2023-03-29T18:36:30.477Z,22.60
2023-03-29T18:39:05.826Z,23.80
2023-03-29T18:41:37.304Z,35.80
2023-03-29T18:44:07.875Z,34.30
2023-03-29T18:46:37.311Z,33.80
2023-03-29T18:49:07.876Z,33.50
2023-03-29T18:51:36.832Z,22.50
2023-03-29T18:54:06.171Z,16.50
2023-03-29T18:56:36.007Z,13.90
2023-03-29T18:59:06.504Z,11.30
2023-03-29T19:01:35.973Z,8.40
2023-03-29T19:04:05.716Z,7.30
2023-03-29T19:06:34.753Z,10.50
2023-03-29T19:09:05.477Z,8.30
2023-03-29T19:11:36.137Z,7.10
2023-03-29T19:14:08.373Z,6.50
2023-03-29T19:16:37.357Z,5.30
2023-03-29T19:19:07.293Z,5.70
2023-03-29T19:21:36.940Z,4.00
2023-03-29T19:24:07.861Z,5.50
2023-03-29T19:26:37.441Z,6.10
2023-03-29T19:29:06.401Z,9.80
2023-03-29T19:31:37.924Z,16.30
2023-03-29T19:34:09.677Z,17.20
2023-03-29T19:36:38.775Z,22.60
2023-03-29T19:39:07.751Z,17.30
2023-03-29T19:41:36.738Z,9.90
2023-03-29T19:44:05.923Z,10.10
2023-03-29T19:46:34.929Z,8.60
2023-03-29T19:49:05.675Z,7.90
2023-03-29T19:51:34.774Z,7.70
2023-03-29T19:54:03.844Z,7.60
2023-03-29T19:56:33.457Z,7.70
2023-03-29T19:59:02.449Z,5.40
2023-03-29T20:01:32.444Z,7.00
2023-03-29T20:04:02.605Z,6.00
2023-03-29T20:06:31.693Z,7.20
2023-03-29T20:09:00.701Z,7.00
2023-03-29T20:11:29.693Z,8.00
2023-03-29T20:13:58.692Z,8.40
2023-03-29T20:16:27.810Z,6.70
2023-03-29T20:18:56.804Z,7.10
2023-03-29T20:21:25.714Z,5.20
2023-03-29T20:23:56.144Z,6.70
2023-03-29T20:26:25.630Z,8.40
2023-03-29T20:28:54.553Z,8.30
2023-03-29T20:31:23.864Z,8.80
2023-03-29T20:33:53.644Z,8.90
2023-03-29T20:36:23.476Z,10.60
2023-03-29T20:38:55.328Z,10.30
2023-03-29T20:41:24.405Z,12.10
2023-03-29T20:43:59.034Z,10.50
2023-03-29T20:46:35.072Z,11.10
2023-03-29T20:49:07.434Z,16.50
2023-03-29T20:51:38.001Z,12.10
2023-03-29T20:54:10.032Z,10.00
2023-03-29T20:56:40.163Z,10.70
2023-03-29T20:59:12.250Z,11.90
2023-03-29T21:01:42.489Z,16.40
2023-03-29T21:04:11.536Z,12.60
2023-03-29T21:06:40.514Z,14.10
2023-03-29T21:09:09.478Z,14.20
2023-03-29T21:11:38.680Z,17.20
2023-03-29T21:14:09.554Z,14.40
2023-03-29T21:16:41.912Z,13.90
2023-03-29T21:19:11.004Z,13.00
2023-03-29T21:21:41.647Z,14.00
2023-03-29T21:24:13.547Z,12.80
2023-03-29T21:26:42.594Z,13.90
2023-03-29T21:29:11.589Z,13.60
2023-03-29T21:31:40.952Z,17.60
2023-03-29T21:34:10.203Z,17.50
2023-03-29T21:36:39.910Z,16.10
2023-03-29T21:39:08.804Z,17.60
2023-03-29T21:41:37.870Z,18.40
2023-03-29T21:44:07.012Z,18.80
2023-03-29T21:46:36.155Z,19.50
2023-03-29T21:49:05.180Z,16.80
2023-03-29T21:51:34.197Z,15.50
2023-03-29T21:54:03.402Z,15.70
2023-03-29T21:56:32.335Z,16.10
2023-03-29T21:59:01.401Z,19.20
2023-03-29T22:01:31.063Z,21.30
2023-03-29T22:04:00.020Z,22.00
2023-03-29T22:06:29.005Z,19.90
2023-03-29T22:09:00.885Z,19.70
2023-03-29T22:11:31.197Z,20.70
2023-03-29T22:14:00.309Z,21.00
2023-03-29T22:16:31.497Z,30.00
2023-03-29T22:19:00.539Z,41.90
2023-03-29T22:21:32.606Z,50.70
2023-03-29T22:24:01.726Z,45.50
2023-03-29T22:26:32.654Z,39.00
2023-03-29T22:29:01.728Z,34.00
2023-03-29T22:31:32.020Z,28.90
2023-03-29T22:34:02.871Z,23.80
2023-03-29T22:36:32.011Z,21.30
2023-03-29T22:39:00.990Z,24.10
2023-03-29T22:41:30.109Z,25.70
2023-03-29T22:44:02.893Z,24.90
2023-03-29T22:46:31.992Z,21.60
2023-03-29T22:49:00.991Z,21.10
2023-03-29T22:51:30.099Z,16.70
2023-03-29T22:53:59.495Z,16.00
2023-03-29T22:56:28.703Z,14.30
2023-03-29T22:58:57.564Z,15.20
2023-03-29T23:01:26.757Z,14.30
2023-03-29T23:03:55.799Z,18.60
2023-03-29T23:06:24.770Z,19.80
2023-03-29T23:08:53.727Z,21.10
2023-03-29T23:11:22.939Z,21.10
2023-03-29T23:13:52.629Z,20.10
2023-03-29T23:16:21.820Z,22.50
2023-03-29T23:18:50.875Z,24.40
2023-03-29T23:21:19.769Z,23.40
2023-03-29T23:23:49.514Z,21.60
2023-03-29T23:26:18.645Z,22.50
2023-03-29T23:28:47.629Z,22.70
2023-03-29T23:31:18.718Z,23.30
2023-03-29T23:33:47.755Z,23.10
2023-03-29T23:36:18.363Z,22.60
2023-03-29T23:38:47.989Z,20.80
2023-03-29T23:41:17.876Z,22.30
2023-03-29T23:43:50.222Z,24.70
2023-03-29T23:46:29.167Z,24.40
2023-03-29T23:49:00.059Z,22.40
2023-03-29T23:51:30.745Z,19.90
2023-03-29T23:53:59.611Z,16.20
2023-03-29T23:56:29.128Z,15.90
2023-03-29T23:58:58.077Z,13.20
